sensor_id;sensor_type;location;lat;lon;timestamp;pressure;altitude;pressure_sealevel;temperature;humidity
40612;BME280;26317;44.894;20.286;2023-11-21T00:01:20;100385.28;;;9.28;96.87
40612;BME280;26317;44.894;20.286;2023-11-21T00:04:00;100387.44;;;9.26;96.59
40612;BME280;26317;44.894;20.286;2023-11-21T00:06:42;100386.91;;;9.23;96.54
40612;BME280;26317;44.894;20.286;2023-11-21T00:09:32;100386.88;;;9.18;96.56
40612;BME280;26317;44.894;20.286;2023-11-21T00:12:19;100384.50;;;9.17;96.72
40612;BME280;26317;44.894;20.286;2023-11-21T00:15:10;100382.06;;;9.10;96.88
40612;BME280;26317;44.894;20.286;2023-11-21T00:17:57;100382.59;;;9.07;97.30
40612;BME280;26317;44.894;20.286;2023-11-21T00:20:35;100372.94;;;9.06;97.36
40612;BME280;26317;44.894;20.286;2023-11-21T00:23:21;100373.75;;;9.02;97.52
40612;BME280;26317;44.894;20.286;2023-11-21T00:25:59;100377.47;;;8.96;97.62
40612;BME280;26317;44.894;20.286;2023-11-21T00:28:39;100378.53;;;8.95;97.50
40612;BME280;26317;44.894;20.286;2023-11-21T00:31:16;100372.38;;;8.89;97.59
40612;BME280;26317;44.894;20.286;2023-11-21T00:33:53;100373.19;;;8.85;97.81
40612;BME280;26317;44.894;20.286;2023-11-21T00:36:31;100362.75;;;8.83;97.40
40612;BME280;26317;44.894;20.286;2023-11-21T00:39:23;100372.88;;;8.81;97.71
40612;BME280;26317;44.894;20.286;2023-11-21T00:42:04;100362.19;;;8.76;97.60
40612;BME280;26317;44.894;20.286;2023-11-21T00:44:43;100362.19;;;8.76;98.01
40612;BME280;26317;44.894;20.286;2023-11-21T00:47:19;100363.00;;;8.76;97.71
40612;BME280;26317;44.894;20.286;2023-11-21T00:49:55;100362.19;;;8.76;97.69
40612;BME280;26317;44.894;20.286;2023-11-21T00:52:28;100362.19;;;8.76;97.61
40612;BME280;26317;44.894;20.286;2023-11-21T00:55:11;100363.78;;;8.77;97.33
40612;BME280;26317;44.894;20.286;2023-11-21T00:57:52;100367.25;;;8.77;97.30
40612;BME280;26317;44.894;20.286;2023-11-21T01:00:42;100357.91;;;8.75;97.33
40612;BME280;26317;44.894;20.286;2023-11-21T01:03:17;100354.16;;;8.71;97.52
40612;BME280;26317;44.894;20.286;2023-11-21T01:05:53;100360.03;;;8.78;97.70
40612;BME280;26317;44.894;20.286;2023-11-21T01:08:33;100353.88;;;8.77;97.43
40612;BME280;26317;44.894;20.286;2023-11-21T01:11:22;100351.50;;;8.76;97.57
40612;BME280;26317;44.894;20.286;2023-11-21T01:14:06;100345.59;;;8.74;97.40
40612;BME280;26317;44.894;20.286;2023-11-21T01:16:42;100344.78;;;8.73;97.44
40612;BME280;26317;44.894;20.286;2023-11-21T01:19:22;100345.59;;;8.74;97.36
40612;BME280;26317;44.894;20.286;2023-11-21T01:21:58;100351.75;;;8.74;97.49
40612;BME280;26317;44.894;20.286;2023-11-21T01:24:49;100356.84;;;8.76;97.22
40612;BME280;26317;44.894;20.286;2023-11-21T01:27:30;100353.63;;;8.74;97.53
40612;BME280;26317;44.894;20.286;2023-11-21T01:30:15;100349.88;;;8.75;97.58
40612;BME280;26317;44.894;20.286;2023-11-21T01:32:58;100349.06;;;8.74;97.73
40612;BME280;26317;44.894;20.286;2023-11-21T01:35:53;100354.69;;;8.78;97.93
40612;BME280;26317;44.894;20.286;2023-11-21T01:38:33;100344.28;;;8.76;98.08
40612;BME280;26317;44.894;20.286;2023-11-21T01:41:16;100348.81;;;8.76;98.04
40612;BME280;26317;44.894;20.286;2023-11-21T01:43:56;100338.09;;;8.71;98.20
40612;BME280;26317;44.894;20.286;2023-11-21T01:46:40;100336.97;;;8.57;98.48
40612;BME280;26317;44.894;20.286;2023-11-21T01:49:21;100336.16;;;8.56;98.93
40612;BME280;26317;44.894;20.286;2023-11-21T01:51:58;100331.84;;;8.45;99.15
40612;BME280;26317;44.894;20.286;2023-11-21T01:54:41;100310.72;;;8.39;99.76
40612;BME280;26317;44.894;20.286;2023-11-21T01:57:16;100313.16;;;8.45;100.00
40612;BME280;26317;44.894;20.286;2023-11-21T01:59:54;100316.06;;;8.44;100.00
40612;BME280;26317;44.894;20.286;2023-11-21T02:02:26;100315.56;;;8.47;100.00
40612;BME280;26317;44.894;20.286;2023-11-21T02:05:07;100309.16;;;8.53;100.00
40612;BME280;26317;44.894;20.286;2023-11-21T02:07:47;100309.16;;;8.53;100.00
40612;BME280;26317;44.894;20.286;2023-11-21T02:10:22;100307.59;;;8.62;100.00
40612;BME280;26317;44.894;20.286;2023-11-21T02:16:01;100308.69;;;8.66;99.56
40612;BME280;26317;44.894;20.286;2023-11-21T02:18:38;100311.91;;;8.68;99.38
40612;BME280;26317;44.894;20.286;2023-11-21T02:21:27;100319.38;;;8.71;99.16
40612;BME280;26317;44.894;20.286;2023-11-21T02:24:23;100317.78;;;8.70;99.33
40612;BME280;26317;44.894;20.286;2023-11-21T02:27:03;100308.13;;;8.69;98.92
40612;BME280;26317;44.894;20.286;2023-11-21T02:29:45;100304.94;;;8.67;99.12
40612;BME280;26317;44.894;20.286;2023-11-21T02:32:42;100305.47;;;8.69;99.31
40612;BME280;26317;44.894;20.286;2023-11-21T02:35:17;100299.59;;;8.67;99.01
40612;BME280;26317;44.894;20.286;2023-11-21T02:38:00;100297.97;;;8.66;98.75
40612;BME280;26317;44.894;20.286;2023-11-21T02:40:45;100293.72;;;8.60;98.81
40612;BME280;26317;44.894;20.286;2023-11-21T02:43:24;100288.06;;;8.56;98.81
40612;BME280;26317;44.894;20.286;2023-11-21T02:46:03;100281.13;;;8.55;98.44
40612;BME280;26317;44.894;20.286;2023-11-21T02:48:46;100287.25;;;8.56;98.93
40612;BME280;26317;44.894;20.286;2023-11-21T02:51:24;100286.44;;;8.50;98.83
40612;BME280;26317;44.894;20.286;2023-11-21T02:54:09;100277.34;;;8.46;98.40
40612;BME280;26317;44.894;20.286;2023-11-21T02:56:53;100281.63;;;8.52;98.16
40612;BME280;26317;44.894;20.286;2023-11-21T02:59:30;100278.97;;;8.47;97.89
40612;BME280;26317;44.894;20.286;2023-11-21T03:02:04;100278.66;;;8.44;97.34
40612;BME280;26317;44.894;20.286;2023-11-21T03:04:51;100272.22;;;8.40;97.21
40612;BME280;26317;44.894;20.286;2023-11-21T03:07:29;100268.22;;;8.37;97.24
40612;BME280;26317;44.894;20.286;2023-11-21T03:10:16;100277.59;;;8.35;96.89
40612;BME280;26317;44.894;20.286;2023-11-21T03:12:57;100277.28;;;8.31;96.98
40612;BME280;26317;44.894;20.286;2023-11-21T03:15:33;100268.97;;;8.27;96.60
40612;BME280;26317;44.894;20.286;2023-11-21T03:18:06;100272.16;;;8.24;96.24
40612;BME280;26317;44.894;20.286;2023-11-21T03:20:46;100261.16;;;8.11;96.62
40612;BME280;26317;44.894;20.286;2023-11-21T03:23:28;100286.28;;;8.15;96.54
40612;BME280;26317;44.894;20.286;2023-11-21T03:26:12;100283.34;;;8.16;96.94
40612;BME280;26317;44.894;20.286;2023-11-21T03:29:06;100282.78;;;8.14;96.93
40612;BME280;26317;44.894;20.286;2023-11-21T03:31:44;100285.47;;;8.14;97.21
40612;BME280;26317;44.894;20.286;2023-11-21T03:34:24;100280.69;;;8.16;97.46
40612;BME280;26317;44.894;20.286;2023-11-21T03:37:05;100278.53;;;8.18;97.18
40612;BME280;26317;44.894;20.286;2023-11-21T03:39:39;100269.19;;;8.16;96.98
40612;BME280;26317;44.894;20.286;2023-11-21T03:42:19;100267.84;;;8.18;96.96
40612;BME280;26317;44.894;20.286;2023-11-21T03:45:06;100268.66;;;8.19;96.81
40612;BME280;26317;44.894;20.286;2023-11-21T03:47:42;100261.97;;;8.16;96.79
40612;BME280;26317;44.894;20.286;2023-11-21T03:50:30;100259.56;;;8.15;96.55
40612;BME280;26317;44.894;20.286;2023-11-21T03:53:07;100248.88;;;8.15;96.71
40612;BME280;26317;44.894;20.286;2023-11-21T03:55:43;100252.34;;;8.05;96.49
40612;BME280;26317;44.894;20.286;2023-11-21T03:58:20;100245.34;;;7.99;97.03
40612;BME280;26317;44.894;20.286;2023-11-21T04:01:19;100243.72;;;7.98;97.15
40612;BME280;26317;44.894;20.286;2023-11-21T04:04:16;100233.31;;;7.92;97.57
40612;BME280;26317;44.894;20.286;2023-11-21T04:06:50;100229.78;;;7.86;98.00
40612;BME280;26317;44.894;20.286;2023-11-21T04:09:34;100223.38;;;7.82;97.71
40612;BME280;26317;44.894;20.286;2023-11-21T04:12:12;100241.84;;;7.89;98.11
40612;BME280;26317;44.894;20.286;2023-11-21T04:14:46;100231.94;;;7.89;98.61
40612;BME280;26317;44.894;20.286;2023-11-21T04:17:26;100238.41;;;7.93;97.71
40612;BME280;26317;44.894;20.286;2023-11-21T04:20:10;100230.06;;;7.90;98.03
40612;BME280;26317;44.894;20.286;2023-11-21T04:22:48;100227.69;;;7.88;98.27
40612;BME280;26317;44.894;20.286;2023-11-21T04:25:25;100232.25;;;7.93;97.82
40612;BME280;26317;44.894;20.286;2023-11-21T04:27:59;100216.72;;;7.90;98.26
40612;BME280;26317;44.894;20.286;2023-11-21T04:30:35;100216.75;;;7.95;98.08
40612;BME280;26317;44.894;20.286;2023-11-21T04:33:28;100214.06;;;7.90;97.89
40612;BME280;26317;44.894;20.286;2023-11-21T04:36:08;100215.91;;;7.89;98.03
40612;BME280;26317;44.894;20.286;2023-11-21T04:38:52;100218.03;;;7.82;98.23
40612;BME280;26317;44.894;20.286;2023-11-21T04:41:28;100220.16;;;7.85;98.22
40612;BME280;26317;44.894;20.286;2023-11-21T04:44:07;100220.72;;;7.87;98.11
40612;BME280;26317;44.894;20.286;2023-11-21T04:46:48;100211.66;;;7.88;98.14
40612;BME280;26317;44.894;20.286;2023-11-21T04:49:39;100215.38;;;7.87;98.12
40612;BME280;26317;44.894;20.286;2023-11-21T04:52:13;100228.19;;;7.85;98.14
40612;BME280;26317;44.894;20.286;2023-11-21T04:54:46;100226.59;;;7.84;98.55
40612;BME280;26317;44.894;20.286;2023-11-21T04:57:26;100235.91;;;7.81;98.57
40612;BME280;26317;44.894;20.286;2023-11-21T05:00:06;100238.34;;;7.83;98.51
40612;BME280;26317;44.894;20.286;2023-11-21T05:02:47;100226.56;;;7.79;98.70
40612;BME280;26317;44.894;20.286;2023-11-21T05:05:44;100231.41;;;7.87;97.90
40612;BME280;26317;44.894;20.286;2023-11-21T05:08:18;100233.28;;;7.86;97.76
40612;BME280;26317;44.894;20.286;2023-11-21T05:10:53;100229.25;;;7.89;97.73
40612;BME280;26317;44.894;20.286;2023-11-21T05:13:41;100220.72;;;7.87;97.56
40612;BME280;26317;44.894;20.286;2023-11-21T05:16:25;100221.25;;;7.84;97.80
40612;BME280;26317;44.894;20.286;2023-11-21T05:19:01;100221.25;;;7.84;97.94
40612;BME280;26317;44.894;20.286;2023-11-21T05:21:47;100224.41;;;7.81;97.76
40612;BME280;26317;44.894;20.286;2023-11-21T05:24:21;100216.69;;;7.79;97.78
40612;BME280;26317;44.894;20.286;2023-11-21T05:26:52;100214.28;;;7.78;97.74
40612;BME280;26317;44.894;20.286;2023-11-21T05:29:27;100222.28;;;7.78;97.84
40612;BME280;26317;44.894;20.286;2023-11-21T05:32:09;100216.94;;;7.78;98.06
40612;BME280;26317;44.894;20.286;2023-11-21T05:34:47;100217.22;;;7.81;98.17
40612;BME280;26317;44.894;20.286;2023-11-21T05:37:30;100223.34;;;7.77;98.22
40612;BME280;26317;44.894;20.286;2023-11-21T05:40:10;100219.38;;;7.79;98.18
40612;BME280;26317;44.894;20.286;2023-11-21T05:42:48;100218.53;;;7.74;98.32
40612;BME280;26317;44.894;20.286;2023-11-21T05:45:31;100216.41;;;7.76;98.81
40612;BME280;26317;44.894;20.286;2023-11-21T05:48:07;100214.56;;;7.76;98.04
40612;BME280;26317;44.894;20.286;2023-11-21T05:50:45;100214.81;;;7.75;98.36
40612;BME280;26317;44.894;20.286;2023-11-21T05:53:34;100209.19;;;7.71;98.51
40612;BME280;26317;44.894;20.286;2023-11-21T05:56:11;100216.66;;;7.74;98.18
40612;BME280;26317;44.894;20.286;2023-11-21T05:58:50;100209.72;;;7.73;98.45
40612;BME280;26317;44.894;20.286;2023-11-21T06:01:27;100210.78;;;7.77;98.72
40612;BME280;26317;44.894;20.286;2023-11-21T06:04:04;100217.22;;;7.81;98.57
40612;BME280;26317;44.894;20.286;2023-11-21T06:06:40;100208.41;;;7.81;98.19
40612;BME280;26317;44.894;20.286;2023-11-21T06:09:33;100220.16;;;7.80;98.54
40612;BME280;26317;44.894;20.286;2023-11-21T06:12:16;100212.41;;;7.78;98.56
40612;BME280;26317;44.894;20.286;2023-11-21T06:15:13;100202.25;;;7.75;98.65
40612;BME280;26317;44.894;20.286;2023-11-21T06:17:53;100206.22;;;7.68;99.21
40612;BME280;26317;44.894;20.286;2023-11-21T06:20:44;100199.78;;;7.59;99.68
40612;BME280;26317;44.894;20.286;2023-11-21T06:23:23;100201.06;;;7.56;100.00
40612;BME280;26317;44.894;20.286;2023-11-21T06:26:10;100193.66;;;7.63;100.00
40612;BME280;26317;44.894;20.286;2023-11-21T06:28:46;100188.00;;;7.60;100.00
40612;BME280;26317;44.894;20.286;2023-11-21T06:31:28;100189.38;;;7.62;100.00
40612;BME280;26317;44.894;20.286;2023-11-21T06:34:02;100182.69;;;7.60;100.00
40612;BME280;26317;44.894;20.286;2023-11-21T06:36:41;100164.56;;;7.62;100.00
40612;BME280;26317;44.894;20.286;2023-11-21T06:39:21;100174.47;;;7.71;100.00
40612;BME280;26317;44.894;20.286;2023-11-21T06:42:06;100168.56;;;7.64;100.00
40612;BME280;26317;44.894;20.286;2023-11-21T06:44:45;100170.72;;;7.72;100.00
40612;BME280;26317;44.894;20.286;2023-11-21T06:47:21;100171.03;;;7.76;100.00
40612;BME280;26317;44.894;20.286;2023-11-21T06:50:05;100177.47;;;7.80;100.00
40612;BME280;26317;44.894;20.286;2023-11-21T06:52:41;100181.72;;;7.86;100.00
40612;BME280;26317;44.894;20.286;2023-11-21T06:55:25;100185.47;;;7.85;100.00
40612;BME280;26317;44.894;20.286;2023-11-21T06:58:12;100183.34;;;7.87;99.98
40612;BME280;26317;44.894;20.286;2023-11-21T07:00:57;100185.78;;;7.89;99.73
40612;BME280;26317;44.894;20.286;2023-11-21T07:03:38;100199.63;;;7.85;99.87
40612;BME280;26317;44.894;20.286;2023-11-21T07:06:19;100203.66;;;7.88;99.88
40612;BME280;26317;44.894;20.286;2023-11-21T07:08:52;100207.91;;;7.89;99.91
40612;BME280;26317;44.894;20.286;2023-11-21T07:11:38;100200.44;;;7.91;100.00
40612;BME280;26317;44.894;20.286;2023-11-21T07:14:19;100195.66;;;7.98;100.00
40612;BME280;26317;44.894;20.286;2023-11-21T07:16:59;100197.31;;;8.04;100.00
40612;BME280;26317;44.894;20.286;2023-11-21T07:19:39;100191.69;;;8.11;100.00
40612;BME280;26317;44.894;20.286;2023-11-21T07:22:13;100174.63;;;8.17;99.85
40612;BME280;26317;44.894;20.286;2023-11-21T07:24:53;100183.47;;;8.27;99.88
40612;BME280;26317;44.894;20.286;2023-11-21T07:27:30;100167.72;;;8.31;99.69
40612;BME280;26317;44.894;20.286;2023-11-21T07:30:29;100172.78;;;8.27;100.00
40612;BME280;26317;44.894;20.286;2023-11-21T07:33:06;100159.19;;;8.29;100.00
40612;BME280;26317;44.894;20.286;2023-11-21T07:35:45;100178.44;;;8.41;100.00
40612;BME280;26317;44.894;20.286;2023-11-21T07:38:34;100180.06;;;8.52;100.00
40612;BME280;26317;44.894;20.286;2023-11-21T07:41:23;100171.78;;;8.54;99.89
40612;BME280;26317;44.894;20.286;2023-11-21T07:44:06;100164.59;;;8.59;99.66
40612;BME280;26317;44.894;20.286;2023-11-21T07:46:58;100168.06;;;8.70;99.82
40612;BME280;26317;44.894;20.286;2023-11-21T07:49:44;100168.59;;;8.72;99.21
40612;BME280;26317;44.894;20.286;2023-11-21T07:52:27;100172.31;;;8.81;99.00
40612;BME280;26317;44.894;20.286;2023-11-21T07:55:06;100166.44;;;8.94;98.71
40612;BME280;26317;44.894;20.286;2023-11-21T07:57:43;100161.63;;;8.96;98.88
40612;BME280;26317;44.894;20.286;2023-11-21T08:00:33;100173.41;;;9.05;99.26
40612;BME280;26317;44.894;20.286;2023-11-21T08:03:21;100159.19;;;9.15;98.94
40612;BME280;26317;44.894;20.286;2023-11-21T08:06:26;100156.25;;;9.27;98.29
40612;BME280;26317;44.894;20.286;2023-11-21T08:09:09;100162.13;;;9.34;98.97
40612;BME280;26317;44.894;20.286;2023-11-21T08:11:47;100155.66;;;9.40;98.48
40612;BME280;26317;44.894;20.286;2023-11-21T08:14:23;100156.72;;;9.49;97.56
40612;BME280;26317;44.894;20.286;2023-11-21T08:17:01;100161.50;;;9.52;97.52
40612;BME280;26317;44.894;20.286;2023-11-21T08:19:41;100154.28;;;9.52;97.06
40612;BME280;26317;44.894;20.286;2023-11-21T08:22:23;100143.06;;;9.50;97.07
40612;BME280;26317;44.894;20.286;2023-11-21T08:25:12;100152.41;;;9.58;97.11
40612;BME280;26317;44.894;20.286;2023-11-21T08:27:51;100145.16;;;9.58;97.33
40612;BME280;26317;44.894;20.286;2023-11-21T08:30:38;100133.66;;;9.58;97.34
40612;BME280;26317;44.894;20.286;2023-11-21T08:33:20;100126.41;;;9.63;98.06
40612;BME280;26317;44.894;20.286;2023-11-21T08:36:07;100123.97;;;9.72;98.46
40612;BME280;26317;44.894;20.286;2023-11-21T08:38:46;100111.63;;;9.76;98.34
40612;BME280;26317;44.894;20.286;2023-11-21T08:41:29;100114.25;;;9.81;98.27
40612;BME280;26317;44.894;20.286;2023-11-21T08:44:07;100115.88;;;9.82;97.53
40612;BME280;26317;44.894;20.286;2023-11-21T08:46:47;100107.78;;;9.92;97.82
40612;BME280;26317;44.894;20.286;2023-11-21T08:49:35;100110.16;;;9.94;98.16
40612;BME280;26317;44.894;20.286;2023-11-21T08:52:22;100106.44;;;9.95;97.84
40612;BME280;26317;44.894;20.286;2023-11-21T08:54:57;100103.47;;;10.01;98.13
40612;BME280;26317;44.894;20.286;2023-11-21T08:57:34;100103.13;;;10.08;98.74
40612;BME280;26317;44.894;20.286;2023-11-21T09:00:27;100102.56;;;10.11;98.41
40612;BME280;26317;44.894;20.286;2023-11-21T09:03:09;100101.00;;;10.10;97.43
40612;BME280;26317;44.894;20.286;2023-11-21T09:05:49;100095.56;;;10.20;97.06
40612;BME280;26317;44.894;20.286;2023-11-21T09:08:31;100085.34;;;10.27;97.10
40612;BME280;26317;44.894;20.286;2023-11-21T09:11:16;100101.34;;;10.37;96.85
40612;BME280;26317;44.894;20.286;2023-11-21T09:13:58;100094.34;;;10.41;95.88
40612;BME280;26317;44.894;20.286;2023-11-21T09:16:35;100080.19;;;10.36;94.94
40612;BME280;26317;44.894;20.286;2023-11-21T09:19:09;100080.19;;;10.36;95.06
40612;BME280;26317;44.894;20.286;2023-11-21T09:21:47;100065.13;;;10.40;96.08
40612;BME280;26317;44.894;20.286;2023-11-21T09:24:26;100058.38;;;10.47;97.11
40612;BME280;26317;44.894;20.286;2023-11-21T09:27:07;100061.84;;;10.48;95.05
40612;BME280;26317;44.894;20.286;2023-11-21T09:29:57;100060.72;;;10.54;94.42
40612;BME280;26317;44.894;20.286;2023-11-21T09:32:33;100052.47;;;10.50;94.38
40612;BME280;26317;44.894;20.286;2023-11-21T09:35:19;100051.31;;;10.56;95.55
40612;BME280;26317;44.894;20.286;2023-11-21T09:37:59;100042.16;;;10.63;96.92
40612;BME280;26317;44.894;20.286;2023-11-21T09:40:50;100055.78;;;10.66;97.31
40612;BME280;26317;44.894;20.286;2023-11-21T09:43:59;100037.59;;;10.63;95.35
40612;BME280;26317;44.894;20.286;2023-11-21T09:46:51;100043.94;;;10.72;95.76
40612;BME280;26317;44.894;20.286;2023-11-21T09:49:29;100041.19;;;10.77;95.98
40612;BME280;26317;44.894;20.286;2023-11-21T09:52:18;100039.09;;;10.74;93.78
40612;BME280;26317;44.894;20.286;2023-11-21T09:54:57;100041.81;;;10.69;93.47
40612;BME280;26317;44.894;20.286;2023-11-21T09:57:39;100041.81;;;10.69;94.19
40612;BME280;26317;44.894;20.286;2023-11-21T10:00:41;100052.53;;;10.69;93.92
40612;BME280;26317;44.894;20.286;2023-11-21T10:03:20;100053.56;;;10.73;94.04
40612;BME280;26317;44.894;20.286;2023-11-21T10:05:56;100066.91;;;10.54;94.42
40612;BME280;26317;44.894;20.286;2023-11-21T10:08:50;100073.19;;;10.40;94.60
40612;BME280;26317;44.894;20.286;2023-11-21T10:11:37;100057.69;;;10.32;95.70
40612;BME280;26317;44.894;20.286;2023-11-21T10:14:28;100061.41;;;10.36;96.46
40612;BME280;26317;44.894;20.286;2023-11-21T10:17:07;100054.81;;;10.23;95.89
40612;BME280;26317;44.894;20.286;2023-11-21T10:19:55;100070.16;;;10.12;97.72
40612;BME280;26317;44.894;20.286;2023-11-21T10:22:34;100067.75;;;10.16;97.90
40612;BME280;26317;44.894;20.286;2023-11-21T10:25:12;100065.84;;;10.22;96.66
40612;BME280;26317;44.894;20.286;2023-11-21T10:28:01;100057.81;;;10.11;97.72
40612;BME280;26317;44.894;20.286;2023-11-21T10:30:42;100056.78;;;10.07;97.97
40612;BME280;26317;44.894;20.286;2023-11-21T10:33:16;100054.56;;;10.14;98.66
40612;BME280;26317;44.894;20.286;2023-11-21T10:35:52;100049.19;;;10.25;98.92
40612;BME280;26317;44.894;20.286;2023-11-21T10:38:37;100046.97;;;10.32;98.67
40612;BME280;26317;44.894;20.286;2023-11-21T10:44:17;100039.97;;;10.36;97.79
40612;BME280;26317;44.894;20.286;2023-11-21T10:47:10;100033.06;;;10.30;98.92
40612;BME280;26317;44.894;20.286;2023-11-21T10:49:45;100027.72;;;10.30;97.85
40612;BME280;26317;44.894;20.286;2023-11-21T10:52:28;100036.25;;;10.32;98.01
40612;BME280;26317;44.894;20.286;2023-11-21T10:55:21;100038.38;;;10.35;98.35
40612;BME280;26317;44.894;20.286;2023-11-21T10:57:59;100031.94;;;10.36;97.17
40612;BME280;26317;44.894;20.286;2023-11-21T11:00:37;100023.88;;;10.36;97.23
40612;BME280;26317;44.894;20.286;2023-11-21T11:03:30;100036.69;;;10.44;96.77
40612;BME280;26317;44.894;20.286;2023-11-21T11:06:08;100031.03;;;10.45;96.96
40612;BME280;26317;44.894;20.286;2023-11-21T11:08:48;100033.72;;;10.45;97.37
40612;BME280;26317;44.894;20.286;2023-11-21T11:11:28;100038.72;;;10.57;96.31
40612;BME280;26317;44.894;20.286;2023-11-21T11:14:09;100029.09;;;10.56;96.13
40612;BME280;26317;44.894;20.286;2023-11-21T11:16:53;100033.84;;;10.64;95.55
40612;BME280;26317;44.894;20.286;2023-11-21T11:19:38;100025.00;;;10.64;95.58
40612;BME280;26317;44.894;20.286;2023-11-21T11:22:23;100039.81;;;10.56;95.52
40612;BME280;26317;44.894;20.286;2023-11-21T11:25:27;100028.97;;;10.66;96.03
40612;BME280;26317;44.894;20.286;2023-11-21T11:28:10;100034.28;;;10.71;95.56
40612;BME280;26317;44.894;20.286;2023-11-21T11:31:13;100032.19;;;10.68;96.03
40612;BME280;26317;44.894;20.286;2023-11-21T11:34:09;100039.38;;;10.73;96.31
40612;BME280;26317;44.894;20.286;2023-11-21T11:37:05;100040.34;;;10.82;96.05
40612;BME280;26317;44.894;20.286;2023-11-21T11:40:00;100035.22;;;10.85;97.43
40612;BME280;26317;44.894;20.286;2023-11-21T11:42:38;100026.06;;;10.86;98.65
40612;BME280;26317;44.894;20.286;2023-11-21T11:45:21;100023.88;;;10.93;98.14
40612;BME280;26317;44.894;20.286;2023-11-21T11:48:01;100023.56;;;10.95;98.40
40612;BME280;26317;44.894;20.286;2023-11-21T11:50:37;100018.69;;;11.02;98.71
40612;BME280;26317;44.894;20.286;2023-11-21T11:53:36;100032.59;;;11.04;98.44
40612;BME280;26317;44.894;20.286;2023-11-21T11:56:45;100014.16;;;10.97;98.84
40612;BME280;26317;44.894;20.286;2023-11-21T11:59:42;100016.22;;;11.05;99.59
40612;BME280;26317;44.894;20.286;2023-11-21T12:02:25;100019.34;;;11.13;100.00
40612;BME280;26317;44.894;20.286;2023-11-21T12:05:08;100010.50;;;11.12;100.00
40612;BME280;26317;44.894;20.286;2023-11-21T12:07:45;100007.81;;;11.12;100.00
40612;BME280;26317;44.894;20.286;2023-11-21T12:10:23;100005.34;;;11.16;100.00
40612;BME280;26317;44.894;20.286;2023-11-21T12:13:02;100004.38;;;11.06;100.00
40612;BME280;26317;44.894;20.286;2023-11-21T12:15:40;100001.25;;;10.99;98.61
40612;BME280;26317;44.894;20.286;2023-11-21T12:18:17;100000.66;;;11.02;98.62
40612;BME280;26317;44.894;20.286;2023-11-21T12:20:48;100004.97;;;11.03;98.95
40612;BME280;26317;44.894;20.286;2023-11-21T12:23:50;100004.47;;;11.01;99.59
40612;BME280;26317;44.894;20.286;2023-11-21T12:26:35;100011.19;;;10.99;99.98
40612;BME280;26317;44.894;20.286;2023-11-21T12:29:26;100013.38;;;10.97;100.00
40612;BME280;26317;44.894;20.286;2023-11-21T12:31:59;100002.31;;;10.98;100.00
40612;BME280;26317;44.894;20.286;2023-11-21T12:34:36;100000.50;;;10.94;100.00
40612;BME280;26317;44.894;20.286;2023-11-21T12:37:10;100009.56;;;10.98;100.00
40612;BME280;26317;44.894;20.286;2023-11-21T12:39:58;100013.59;;;11.00;100.00
40612;BME280;26317;44.894;20.286;2023-11-21T12:42:42;100006.91;;;10.98;100.00
40612;BME280;26317;44.894;20.286;2023-11-21T12:45:26;100010.03;;;10.81;100.00
40612;BME280;26317;44.894;20.286;2023-11-21T12:48:04;100009.19;;;10.86;100.00
40612;BME280;26317;44.894;20.286;2023-11-21T12:50:49;100008.94;;;10.82;100.00
40612;BME280;26317;44.894;20.286;2023-11-21T12:53:27;100007.06;;;10.83;100.00
40612;BME280;26317;44.894;20.286;2023-11-21T12:56:19;100005.78;;;10.80;100.00
40612;BME280;26317;44.894;20.286;2023-11-21T12:59:00;100002.28;;;10.80;100.00
40612;BME280;26317;44.894;20.286;2023-11-21T13:01:38;100001.75;;;10.78;100.00
40612;BME280;26317;44.894;20.286;2023-11-21T13:04:16;100000.72;;;10.74;100.00
40612;BME280;26317;44.894;20.286;2023-11-21T13:06:56;100004.78;;;10.71;100.00
40612;BME280;26317;44.894;20.286;2023-11-21T13:09:40;99997.78;;;10.75;100.00
40612;BME280;26317;44.894;20.286;2023-11-21T13:12:24;99998.84;;;10.74;100.00
40612;BME280;26317;44.894;20.286;2023-11-21T13:15:06;99994.63;;;10.68;100.00
40612;BME280;26317;44.894;20.286;2023-11-21T13:17:45;100003.72;;;10.72;100.00
40612;BME280;26317;44.894;20.286;2023-11-21T13:20:26;100004.84;;;10.66;100.00
40612;BME280;26317;44.894;20.286;2023-11-21T13:23:13;100003.19;;;10.70;100.00
40612;BME280;26317;44.894;20.286;2023-11-21T13:25:51;99992.28;;;10.61;100.00
40612;BME280;26317;44.894;20.286;2023-11-21T13:28:45;100002.44;;;10.65;100.00
40612;BME280;26317;44.894;20.286;2023-11-21T13:31:34;100005.72;;;10.56;100.00
40612;BME280;26317;44.894;20.286;2023-11-21T13:34:10;100003.63;;;10.53;100.00
40612;BME280;26317;44.894;20.286;2023-11-21T13:36:58;100010.31;;;10.56;100.00
40612;BME280;26317;44.894;20.286;2023-11-21T13:39:39;100008.97;;;10.53;100.00
40612;BME280;26317;44.894;20.286;2023-11-21T13:42:31;100005.50;;;10.53;100.00
40612;BME280;26317;44.894;20.286;2023-11-21T13:45:13;100012.25;;;10.50;100.00
40612;BME280;26317;44.894;20.286;2023-11-21T13:47:53;100009.78;;;10.54;100.00
40612;BME280;26317;44.894;20.286;2023-11-21T13:50:29;100008.47;;;10.51;100.00
40612;BME280;26317;44.894;20.286;2023-11-21T13:53:18;100011.44;;;10.50;100.00
40612;BME280;26317;44.894;20.286;2023-11-21T13:55:57;100021.94;;;10.46;100.00
40612;BME280;26317;44.894;20.286;2023-11-21T13:58:40;100023.53;;;10.47;100.00
40612;BME280;26317;44.894;20.286;2023-11-21T14:01:27;100031.00;;;10.50;100.00
40612;BME280;26317;44.894;20.286;2023-11-21T14:04:22;100027.00;;;10.48;100.00
40612;BME280;26317;44.894;20.286;2023-11-21T14:07:13;100026.50;;;10.46;100.00
40612;BME280;26317;44.894;20.286;2023-11-21T14:10:02;100039.38;;;10.44;100.00